sensor_id;sensor_type;location;lat;lon;timestamp;P1;durP1;ratioP1;P2;durP2;ratioP2
44670;SDS011;48397;53.016;-2.260;2023-04-30T00:02:11;33.90;;;17.15;;
44670;SDS011;48397;53.016;-2.260;2023-04-30T00:04:39;33.70;;;16.98;;
44670;SDS011;48397;53.016;-2.260;2023-04-30T00:07:10;37.65;;;17.35;;
44670;SDS011;48397;53.016;-2.260;2023-04-30T00:09:38;36.00;;;18.15;;
44670;SDS011;48397;53.016;-2.260;2023-04-30T00:12:06;38.92;;;19.10;;
44670;SDS011;48397;53.016;-2.260;2023-04-30T00:14:34;37.22;;;18.33;;
44670;SDS011;48397;53.016;-2.260;2023-04-30T00:19:30;41.53;;;20.27;;
44670;SDS011;48397;53.016;-2.260;2023-04-30T00:21:58;41.33;;;20.48;;
44670;SDS011;48397;53.016;-2.260;2023-04-30T00:24:27;43.65;;;20.13;;
44670;SDS011;48397;53.016;-2.260;2023-04-30T00:26:55;47.05;;;21.42;;
44670;SDS011;48397;53.016;-2.260;2023-04-30T00:29:24;41.50;;;20.05;;
44670;SDS011;48397;53.016;-2.260;2023-04-30T00:31:51;47.03;;;22.40;;
44670;SDS011;48397;53.016;-2.260;2023-04-30T00:34:19;43.60;;;20.73;;
44670;SDS011;48397;53.016;-2.260;2023-04-30T00:36:47;38.22;;;20.13;;
44670;SDS011;48397;53.016;-2.260;2023-04-30T00:39:16;43.55;;;21.15;;
44670;SDS011;48397;53.016;-2.260;2023-04-30T00:41:44;40.08;;;20.38;;
44670;SDS011;48397;53.016;-2.260;2023-04-30T00:44:12;41.22;;;21.58;;
44670;SDS011;48397;53.016;-2.260;2023-04-30T00:49:10;46.65;;;21.83;;
44670;SDS011;48397;53.016;-2.260;2023-04-30T00:51:39;48.42;;;22.27;;
44670;SDS011;48397;53.016;-2.260;2023-04-30T00:54:11;50.67;;;23.08;;
44670;SDS011;48397;53.016;-2.260;2023-04-30T00:56:40;45.53;;;21.38;;
44670;SDS011;48397;53.016;-2.260;2023-04-30T00:59:08;48.83;;;23.10;;
44670;SDS011;48397;53.016;-2.260;2023-04-30T01:01:37;49.35;;;22.98;;
44670;SDS011;48397;53.016;-2.260;2023-04-30T01:04:06;42.33;;;21.83;;
44670;SDS011;48397;53.016;-2.260;2023-04-30T01:06:34;46.20;;;21.83;;
44670;SDS011;48397;53.016;-2.260;2023-04-30T01:09:05;46.78;;;23.00;;
44670;SDS011;48397;53.016;-2.260;2023-04-30T01:11:40;45.13;;;22.17;;
44670;SDS011;48397;53.016;-2.260;2023-04-30T01:14:19;48.22;;;22.85;;
44670;SDS011;48397;53.016;-2.260;2023-04-30T01:17:12;42.42;;;22.10;;
44670;SDS011;48397;53.016;-2.260;2023-04-30T01:19:48;47.55;;;24.17;;
44670;SDS011;48397;53.016;-2.260;2023-04-30T01:28:01;48.92;;;23.25;;
44670;SDS011;48397;53.016;-2.260;2023-04-30T01:30:39;46.15;;;22.02;;
44670;SDS011;48397;53.016;-2.260;2023-04-30T01:33:11;49.28;;;23.20;;
44670;SDS011;48397;53.016;-2.260;2023-04-30T01:36:04;47.03;;;22.80;;
44670;SDS011;48397;53.016;-2.260;2023-04-30T01:50:00;44.17;;;22.92;;
44670;SDS011;48397;53.016;-2.260;2023-04-30T01:52:52;50.50;;;23.77;;
44670;SDS011;48397;53.016;-2.260;2023-04-30T01:55:27;44.70;;;23.05;;
44670;SDS011;48397;53.016;-2.260;2023-04-30T01:58:13;45.13;;;20.65;;
44670;SDS011;48397;53.016;-2.260;2023-04-30T02:00:42;42.42;;;20.73;;
44670;SDS011;48397;53.016;-2.260;2023-04-30T02:03:10;48.92;;;21.85;;
44670;SDS011;48397;53.016;-2.260;2023-04-30T02:05:38;47.65;;;21.52;;
44670;SDS011;48397;53.016;-2.260;2023-04-30T02:08:07;49.10;;;21.17;;
44670;SDS011;48397;53.016;-2.260;2023-04-30T02:10:37;49.13;;;21.85;;
44670;SDS011;48397;53.016;-2.260;2023-04-30T02:13:05;45.67;;;21.02;;
44670;SDS011;48397;53.016;-2.260;2023-04-30T02:15:32;47.38;;;21.08;;
44670;SDS011;48397;53.016;-2.260;2023-04-30T02:18:01;48.55;;;21.90;;
44670;SDS011;48397;53.016;-2.260;2023-04-30T02:22:59;51.00;;;21.08;;
44670;SDS011;48397;53.016;-2.260;2023-04-30T02:25:28;48.75;;;22.17;;
44670;SDS011;48397;53.016;-2.260;2023-04-30T02:27:56;54.20;;;21.85;;
44670;SDS011;48397;53.016;-2.260;2023-04-30T02:30:24;47.25;;;21.60;;
44670;SDS011;48397;53.016;-2.260;2023-04-30T02:32:52;57.88;;;23.02;;
44670;SDS011;48397;53.016;-2.260;2023-04-30T02:35:19;51.80;;;22.35;;
44670;SDS011;48397;53.016;-2.260;2023-04-30T02:37:48;56.83;;;24.17;;
44670;SDS011;48397;53.016;-2.260;2023-04-30T02:40:15;54.97;;;26.13;;
44670;SDS011;48397;53.016;-2.260;2023-04-30T02:42:43;59.28;;;24.50;;
44670;SDS011;48397;53.016;-2.260;2023-04-30T02:45:11;56.28;;;24.40;;
44670;SDS011;48397;53.016;-2.260;2023-04-30T02:50:07;54.22;;;25.55;;
44670;SDS011;48397;53.016;-2.260;2023-04-30T02:55:02;59.40;;;26.70;;
44670;SDS011;48397;53.016;-2.260;2023-04-30T02:57:32;59.70;;;25.92;;
44670;SDS011;48397;53.016;-2.260;2023-04-30T03:00:02;52.88;;;24.08;;
44670;SDS011;48397;53.016;-2.260;2023-04-30T03:02:31;59.38;;;23.35;;
44670;SDS011;48397;53.016;-2.260;2023-04-30T03:05:02;55.33;;;24.77;;
44670;SDS011;48397;53.016;-2.260;2023-04-30T03:07:30;58.63;;;22.52;;
44670;SDS011;48397;53.016;-2.260;2023-04-30T03:09:58;54.35;;;23.83;;
44670;SDS011;48397;53.016;-2.260;2023-04-30T03:12:26;51.92;;;22.30;;
44670;SDS011;48397;53.016;-2.260;2023-04-30T03:17:12;58.33;;;23.92;;
44670;SDS011;48397;53.016;-2.260;2023-04-30T03:22:09;58.92;;;26.10;;
44670;SDS011;48397;53.016;-2.260;2023-04-30T03:24:37;60.40;;;24.27;;
44670;SDS011;48397;53.016;-2.260;2023-04-30T03:27:04;62.22;;;25.63;;
44670;SDS011;48397;53.016;-2.260;2023-04-30T03:32:00;62.20;;;24.63;;
44670;SDS011;48397;53.016;-2.260;2023-04-30T03:34:28;58.15;;;25.33;;
44670;SDS011;48397;53.016;-2.260;2023-04-30T03:36:57;52.30;;;22.20;;
44670;SDS011;48397;53.016;-2.260;2023-04-30T03:39:25;65.28;;;25.67;;
44670;SDS011;48397;53.016;-2.260;2023-04-30T03:41:53;64.70;;;26.92;;
44670;SDS011;48397;53.016;-2.260;2023-04-30T03:44:21;64.45;;;26.17;;
44670;SDS011;48397;53.016;-2.260;2023-04-30T03:49:18;61.30;;;24.42;;
44670;SDS011;48397;53.016;-2.260;2023-04-30T03:54:13;61.17;;;26.08;;
44670;SDS011;48397;53.016;-2.260;2023-04-30T03:56:41;60.47;;;24.80;;
44670;SDS011;48397;53.016;-2.260;2023-04-30T03:59:10;63.28;;;22.90;;
44670;SDS011;48397;53.016;-2.260;2023-04-30T04:01:39;50.00;;;19.77;;
44670;SDS011;48397;53.016;-2.260;2023-04-30T04:06:36;47.05;;;18.25;;
44670;SDS011;48397;53.016;-2.260;2023-04-30T04:09:04;46.60;;;19.27;;
44670;SDS011;48397;53.016;-2.260;2023-04-30T04:11:32;44.97;;;17.58;;
44670;SDS011;48397;53.016;-2.260;2023-04-30T04:14:02;45.15;;;17.75;;
44670;SDS011;48397;53.016;-2.260;2023-04-30T04:16:31;44.80;;;18.15;;
44670;SDS011;48397;53.016;-2.260;2023-04-30T04:18:59;47.95;;;18.90;;
44670;SDS011;48397;53.016;-2.260;2023-04-30T04:21:27;46.25;;;19.38;;
44670;SDS011;48397;53.016;-2.260;2023-04-30T04:23:56;52.42;;;19.73;;
44670;SDS011;48397;53.016;-2.260;2023-04-30T04:26:25;50.83;;;18.85;;
44670;SDS011;48397;53.016;-2.260;2023-04-30T04:28:55;46.97;;;18.98;;
44670;SDS011;48397;53.016;-2.260;2023-04-30T04:33:50;54.83;;;22.40;;
44670;SDS011;48397;53.016;-2.260;2023-04-30T04:36:27;55.15;;;22.25;;
44670;SDS011;48397;53.016;-2.260;2023-04-30T04:38:57;50.60;;;20.38;;
44670;SDS011;48397;53.016;-2.260;2023-04-30T04:41:31;52.85;;;20.38;;
44670;SDS011;48397;53.016;-2.260;2023-04-30T04:44:02;61.30;;;22.05;;
44670;SDS011;48397;53.016;-2.260;2023-04-30T04:46:31;56.50;;;21.90;;
44670;SDS011;48397;53.016;-2.260;2023-04-30T04:48:59;58.40;;;22.45;;
44670;SDS011;48397;53.016;-2.260;2023-04-30T04:51:27;68.22;;;24.83;;
44670;SDS011;48397;53.016;-2.260;2023-04-30T04:53:54;64.03;;;23.98;;
44670;SDS011;48397;53.016;-2.260;2023-04-30T04:56:22;65.35;;;23.70;;
44670;SDS011;48397;53.016;-2.260;2023-04-30T04:58:50;72.72;;;26.33;;
44670;SDS011;48397;53.016;-2.260;2023-04-30T05:01:18;70.55;;;26.08;;
44670;SDS011;48397;53.016;-2.260;2023-04-30T05:06:14;76.43;;;30.38;;
44670;SDS011;48397;53.016;-2.260;2023-04-30T05:08:42;76.72;;;29.02;;
44670;SDS011;48397;53.016;-2.260;2023-04-30T05:11:10;81.35;;;31.23;;
44670;SDS011;48397;53.016;-2.260;2023-04-30T05:13:41;73.60;;;27.88;;
44670;SDS011;48397;53.016;-2.260;2023-04-30T05:16:09;72.20;;;27.05;;
44670;SDS011;48397;53.016;-2.260;2023-04-30T05:18:36;71.68;;;28.23;;
44670;SDS011;48397;53.016;-2.260;2023-04-30T05:21:04;73.25;;;26.17;;
44670;SDS011;48397;53.016;-2.260;2023-04-30T05:23:32;76.18;;;26.42;;
44670;SDS011;48397;53.016;-2.260;2023-04-30T05:26:00;66.65;;;25.17;;
44670;SDS011;48397;53.016;-2.260;2023-04-30T05:28:28;77.30;;;25.40;;
44670;SDS011;48397;53.016;-2.260;2023-04-30T05:30:56;64.25;;;23.58;;
44670;SDS011;48397;53.016;-2.260;2023-04-30T05:33:23;68.50;;;26.60;;
44670;SDS011;48397;53.016;-2.260;2023-04-30T05:35:51;64.13;;;23.67;;
44670;SDS011;48397;53.016;-2.260;2023-04-30T05:38:18;58.90;;;23.00;;
44670;SDS011;48397;53.016;-2.260;2023-04-30T05:40:46;59.97;;;21.85;;
44670;SDS011;48397;53.016;-2.260;2023-04-30T05:45:42;48.78;;;18.65;;
44670;SDS011;48397;53.016;-2.260;2023-04-30T05:48:09;50.85;;;19.75;;
44670;SDS011;48397;53.016;-2.260;2023-04-30T05:50:37;53.58;;;19.65;;
44670;SDS011;48397;53.016;-2.260;2023-04-30T05:53:05;42.70;;;17.92;;
44670;SDS011;48397;53.016;-2.260;2023-04-30T05:55:32;45.80;;;17.92;;
44670;SDS011;48397;53.016;-2.260;2023-04-30T05:58:00;42.47;;;16.35;;
44670;SDS011;48397;53.016;-2.260;2023-04-30T06:00:28;44.22;;;17.98;;
44670;SDS011;48397;53.016;-2.260;2023-04-30T06:02:56;44.33;;;17.08;;
44670;SDS011;48397;53.016;-2.260;2023-04-30T06:05:23;41.95;;;16.65;;
44670;SDS011;48397;53.016;-2.260;2023-04-30T06:07:51;41.28;;;17.48;;
44670;SDS011;48397;53.016;-2.260;2023-04-30T06:10:19;38.95;;;15.88;;
44670;SDS011;48397;53.016;-2.260;2023-04-30T06:12:47;40.08;;;15.95;;
44670;SDS011;48397;53.016;-2.260;2023-04-30T06:15:15;31.60;;;13.57;;
44670;SDS011;48397;53.016;-2.260;2023-04-30T06:17:43;33.83;;;13.13;;
44670;SDS011;48397;53.016;-2.260;2023-04-30T06:20:11;34.53;;;14.65;;
44670;SDS011;48397;53.016;-2.260;2023-04-30T06:22:40;34.40;;;14.40;;
44670;SDS011;48397;53.016;-2.260;2023-04-30T06:25:08;38.00;;;15.20;;
44670;SDS011;48397;53.016;-2.260;2023-04-30T06:27:35;36.75;;;15.07;;
44670;SDS011;48397;53.016;-2.260;2023-04-30T06:30:03;38.85;;;15.43;;
44670;SDS011;48397;53.016;-2.260;2023-04-30T06:32:32;35.95;;;15.57;;
44670;SDS011;48397;53.016;-2.260;2023-04-30T06:35:00;37.05;;;15.82;;
44670;SDS011;48397;53.016;-2.260;2023-04-30T06:37:27;42.67;;;16.25;;
44670;SDS011;48397;53.016;-2.260;2023-04-30T06:39:58;39.30;;;14.45;;
44670;SDS011;48397;53.016;-2.260;2023-04-30T06:42:25;31.17;;;14.35;;
44670;SDS011;48397;53.016;-2.260;2023-04-30T06:47:22;33.80;;;14.05;;
44670;SDS011;48397;53.016;-2.260;2023-04-30T06:49:49;35.53;;;13.73;;
44670;SDS011;48397;53.016;-2.260;2023-04-30T06:52:17;34.45;;;15.85;;
44670;SDS011;48397;53.016;-2.260;2023-04-30T06:54:45;33.40;;;14.27;;
44670;SDS011;48397;53.016;-2.260;2023-04-30T06:57:13;28.77;;;14.02;;
44670;SDS011;48397;53.016;-2.260;2023-04-30T06:59:41;28.42;;;12.52;;
44670;SDS011;48397;53.016;-2.260;2023-04-30T07:02:08;30.55;;;13.38;;
44670;SDS011;48397;53.016;-2.260;2023-04-30T07:04:36;24.45;;;11.70;;
44670;SDS011;48397;53.016;-2.260;2023-04-30T07:07:04;30.33;;;12.60;;
44670;SDS011;48397;53.016;-2.260;2023-04-30T07:09:32;29.65;;;12.38;;
44670;SDS011;48397;53.016;-2.260;2023-04-30T07:12:00;27.33;;;12.43;;
44670;SDS011;48397;53.016;-2.260;2023-04-30T07:14:28;32.08;;;12.40;;
44670;SDS011;48397;53.016;-2.260;2023-04-30T07:16:56;26.23;;;12.13;;
44670;SDS011;48397;53.016;-2.260;2023-04-30T07:19:23;25.20;;;12.00;;
44670;SDS011;48397;53.016;-2.260;2023-04-30T07:21:52;29.50;;;12.52;;
44670;SDS011;48397;53.016;-2.260;2023-04-30T07:24:20;26.73;;;11.88;;
44670;SDS011;48397;53.016;-2.260;2023-04-30T07:26:48;23.35;;;11.75;;
44670;SDS011;48397;53.016;-2.260;2023-04-30T07:29:15;29.40;;;12.27;;
44670;SDS011;48397;53.016;-2.260;2023-04-30T07:31:44;26.77;;;11.55;;
44670;SDS011;48397;53.016;-2.260;2023-04-30T07:34:11;30.23;;;11.13;;
44670;SDS011;48397;53.016;-2.260;2023-04-30T07:36:39;25.10;;;11.90;;
44670;SDS011;48397;53.016;-2.260;2023-04-30T07:39:07;26.52;;;12.07;;
44670;SDS011;48397;53.016;-2.260;2023-04-30T07:41:36;27.88;;;11.02;;
44670;SDS011;48397;53.016;-2.260;2023-04-30T07:44:03;24.98;;;11.00;;
44670;SDS011;48397;53.016;-2.260;2023-04-30T07:46:31;25.40;;;11.30;;
44670;SDS011;48397;53.016;-2.260;2023-04-30T07:48:59;22.77;;;11.15;;
44670;SDS011;48397;53.016;-2.260;2023-04-30T07:51:27;27.27;;;12.15;;
44670;SDS011;48397;53.016;-2.260;2023-04-30T07:53:55;24.05;;;11.40;;
44670;SDS011;48397;53.016;-2.260;2023-04-30T07:56:22;23.30;;;11.40;;
44670;SDS011;48397;53.016;-2.260;2023-04-30T07:58:50;29.35;;;11.55;;
44670;SDS011;48397;53.016;-2.260;2023-04-30T08:01:18;24.38;;;11.65;;
44670;SDS011;48397;53.016;-2.260;2023-04-30T08:03:46;25.63;;;10.65;;
44670;SDS011;48397;53.016;-2.260;2023-04-30T08:08:42;22.25;;;9.60;;
44670;SDS011;48397;53.016;-2.260;2023-04-30T08:11:10;25.13;;;11.48;;
44670;SDS011;48397;53.016;-2.260;2023-04-30T08:13:38;21.02;;;9.63;;
44670;SDS011;48397;53.016;-2.260;2023-04-30T08:16:06;22.75;;;10.05;;
44670;SDS011;48397;53.016;-2.260;2023-04-30T08:18:34;21.23;;;9.75;;
44670;SDS011;48397;53.016;-2.260;2023-04-30T08:21:04;23.08;;;10.25;;
44670;SDS011;48397;53.016;-2.260;2023-04-30T08:26:00;23.20;;;10.75;;
44670;SDS011;48397;53.016;-2.260;2023-04-30T08:28:28;21.33;;;10.05;;
44670;SDS011;48397;53.016;-2.260;2023-04-30T08:30:55;20.50;;;8.95;;
44670;SDS011;48397;53.016;-2.260;2023-04-30T08:33:23;23.90;;;10.93;;
44670;SDS011;48397;53.016;-2.260;2023-04-30T08:35:51;24.50;;;10.75;;
44670;SDS011;48397;53.016;-2.260;2023-04-30T08:38:19;23.92;;;9.85;;
44670;SDS011;48397;53.016;-2.260;2023-04-30T08:41:04;24.50;;;10.43;;
44670;SDS011;48397;53.016;-2.260;2023-04-30T08:43:37;24.42;;;10.98;;
44670;SDS011;48397;53.016;-2.260;2023-04-30T08:46:06;20.17;;;9.13;;
44670;SDS011;48397;53.016;-2.260;2023-04-30T08:48:34;26.42;;;11.52;;
44670;SDS011;48397;53.016;-2.260;2023-04-30T08:53:33;25.10;;;11.15;;
44670;SDS011;48397;53.016;-2.260;2023-04-30T08:56:02;27.00;;;10.77;;
44670;SDS011;48397;53.016;-2.260;2023-04-30T08:58:31;25.95;;;11.15;;
44670;SDS011;48397;53.016;-2.260;2023-04-30T09:00:58;24.73;;;11.48;;
44670;SDS011;48397;53.016;-2.260;2023-04-30T09:03:27;21.38;;;9.77;;
44670;SDS011;48397;53.016;-2.260;2023-04-30T09:05:57;26.40;;;12.07;;
44670;SDS011;48397;53.016;-2.260;2023-04-30T09:08:41;24.48;;;10.07;;
44670;SDS011;48397;53.016;-2.260;2023-04-30T09:11:24;26.23;;;11.10;;
44670;SDS011;48397;53.016;-2.260;2023-04-30T09:13:57;23.90;;;10.27;;
44670;SDS011;48397;53.016;-2.260;2023-04-30T09:16:26;29.98;;;10.93;;
44670;SDS011;48397;53.016;-2.260;2023-04-30T09:18:59;24.42;;;10.80;;
44670;SDS011;48397;53.016;-2.260;2023-04-30T09:21:31;21.77;;;11.10;;
44670;SDS011;48397;53.016;-2.260;2023-04-30T09:24:00;22.38;;;10.38;;
44670;SDS011;48397;53.016;-2.260;2023-04-30T09:26:32;23.98;;;9.63;;
44670;SDS011;48397;53.016;-2.260;2023-04-30T09:29:04;21.02;;;9.35;;
44670;SDS011;48397;53.016;-2.260;2023-04-30T09:31:37;22.15;;;9.48;;
44670;SDS011;48397;53.016;-2.260;2023-04-30T09:34:06;19.52;;;8.43;;
44670;SDS011;48397;53.016;-2.260;2023-04-30T09:36:34;18.52;;;8.60;;
44670;SDS011;48397;53.016;-2.260;2023-04-30T09:39:05;23.60;;;10.60;;
44670;SDS011;48397;53.016;-2.260;2023-04-30T09:41:42;23.42;;;10.10;;
44670;SDS011;48397;53.016;-2.260;2023-04-30T09:44:28;24.17;;;9.98;;
44670;SDS011;48397;53.016;-2.260;2023-04-30T09:46:57;23.65;;;10.15;;
44670;SDS011;48397;53.016;-2.260;2023-04-30T09:49:26;20.75;;;9.40;;
44670;SDS011;48397;53.016;-2.260;2023-04-30T09:51:54;28.45;;;10.65;;
44670;SDS011;48397;53.016;-2.260;2023-04-30T09:54:27;25.05;;;10.88;;
44670;SDS011;48397;53.016;-2.260;2023-04-30T09:56:57;26.92;;;10.60;;
44670;SDS011;48397;53.016;-2.260;2023-04-30T09:59:32;21.67;;;10.45;;
44670;SDS011;48397;53.016;-2.260;2023-04-30T10:02:06;26.92;;;10.90;;
44670;SDS011;48397;53.016;-2.260;2023-04-30T10:04:38;25.38;;;11.73;;
44670;SDS011;48397;53.016;-2.260;2023-04-30T10:09:48;26.40;;;11.02;;
44670;SDS011;48397;53.016;-2.260;2023-04-30T10:12:19;27.60;;;11.90;;
44670;SDS011;48397;53.016;-2.260;2023-04-30T10:14:55;26.42;;;12.05;;
44670;SDS011;48397;53.016;-2.260;2023-04-30T10:17:27;28.65;;;11.52;;
44670;SDS011;48397;53.016;-2.260;2023-04-30T10:20:00;27.05;;;11.48;;
44670;SDS011;48397;53.016;-2.260;2023-04-30T10:22:33;24.42;;;11.10;;
44670;SDS011;48397;53.016;-2.260;2023-04-30T10:25:02;28.20;;;10.95;;
44670;SDS011;48397;53.016;-2.260;2023-04-30T10:27:30;24.75;;;11.07;;
44670;SDS011;48397;53.016;-2.260;2023-04-30T10:30:00;22.60;;;10.65;;
44670;SDS011;48397;53.016;-2.260;2023-04-30T10:32:40;27.80;;;11.52;;
44670;SDS011;48397;53.016;-2.260;2023-04-30T10:35:18;27.15;;;12.00;;
44670;SDS011;48397;53.016;-2.260;2023-04-30T10:40:27;27.42;;;12.02;;
44670;SDS011;48397;53.016;-2.260;2023-04-30T10:42:54;26.50;;;11.80;;
44670;SDS011;48397;53.016;-2.260;2023-04-30T10:45:33;26.15;;;11.98;;
44670;SDS011;48397;53.016;-2.260;2023-04-30T10:48:05;31.48;;;13.48;;
44670;SDS011;48397;53.016;-2.260;2023-04-30T10:50:40;36.58;;;14.73;;
44670;SDS011;48397;53.016;-2.260;2023-04-30T10:53:12;31.90;;;13.73;;
44670;SDS011;48397;53.016;-2.260;2023-04-30T10:55:44;31.02;;;11.32;;
44670;SDS011;48397;53.016;-2.260;2023-04-30T10:58:34;29.60;;;13.30;;
44670;SDS011;48397;53.016;-2.260;2023-04-30T11:03:37;30.98;;;14.38;;
44670;SDS011;48397;53.016;-2.260;2023-04-30T11:06:12;29.77;;;14.20;;
44670;SDS011;48397;53.016;-2.260;2023-04-30T11:08:42;32.92;;;15.70;;
44670;SDS011;48397;53.016;-2.260;2023-04-30T11:11:18;32.17;;;13.45;;
44670;SDS011;48397;53.016;-2.260;2023-04-30T11:13:59;30.85;;;13.95;;
44670;SDS011;48397;53.016;-2.260;2023-04-30T11:16:34;27.23;;;13.18;;
44670;SDS011;48397;53.016;-2.260;2023-04-30T11:19:05;30.35;;;13.68;;
44670;SDS011;48397;53.016;-2.260;2023-04-30T11:22:22;28.60;;;13.43;;
44670;SDS011;48397;53.016;-2.260;2023-04-30T11:27:21;28.02;;;14.35;;
44670;SDS011;48397;53.016;-2.260;2023-04-30T11:29:51;33.40;;;14.68;;
44670;SDS011;48397;53.016;-2.260;2023-04-30T11:32:21;30.63;;;13.68;;
44670;SDS011;48397;53.016;-2.260;2023-04-30T11:34:51;24.27;;;10.35;;
44670;SDS011;48397;53.016;-2.260;2023-04-30T11:37:26;25.23;;;12.32;;
44670;SDS011;48397;53.016;-2.260;2023-04-30T11:40:01;29.63;;;12.88;;
44670;SDS011;48397;53.016;-2.260;2023-04-30T11:42:34;26.45;;;12.43;;
44670;SDS011;48397;53.016;-2.260;2023-04-30T11:45:02;27.75;;;12.02;;
44670;SDS011;48397;53.016;-2.260;2023-04-30T11:47:40;29.50;;;12.40;;
44670;SDS011;48397;53.016;-2.260;2023-04-30T11:50:13;25.23;;;11.82;;
44670;SDS011;48397;53.016;-2.260;2023-04-30T11:52:47;21.35;;;11.00;;
44670;SDS011;48397;53.016;-2.260;2023-04-30T11:55:16;24.30;;;10.57;;
44670;SDS011;48397;53.016;-2.260;2023-04-30T11:57:46;23.67;;;11.02;;
44670;SDS011;48397;53.016;-2.260;2023-04-30T12:00:17;29.73;;;12.13;;
44670;SDS011;48397;53.016;-2.260;2023-04-30T12:02:46;24.23;;;12.05;;
44670;SDS011;48397;53.016;-2.260;2023-04-30T12:05:17;25.88;;;11.88;;
44670;SDS011;48397;53.016;-2.260;2023-04-30T12:07:58;26.52;;;11.88;;
44670;SDS011;48397;53.016;-2.260;2023-04-30T12:10:27;24.98;;;11.65;;
44670;SDS011;48397;53.016;-2.260;2023-04-30T12:12:54;23.55;;;11.20;;
44670;SDS011;48397;53.016;-2.260;2023-04-30T12:15:23;25.50;;;11.93;;
44670;SDS011;48397;53.016;-2.260;2023-04-30T12:17:55;23.30;;;10.35;;
44670;SDS011;48397;53.016;-2.260;2023-04-30T12:20:25;15.70;;;7.75;;
44670;SDS011;48397;53.016;-2.260;2023-04-30T12:22:54;16.25;;;7.07;;
44670;SDS011;48397;53.016;-2.260;2023-04-30T12:25:23;19.27;;;7.57;;
44670;SDS011;48397;53.016;-2.260;2023-04-30T12:27:54;16.27;;;8.23;;
44670;SDS011;48397;53.016;-2.260;2023-04-30T12:30:25;16.27;;;7.95;;
44670;SDS011;48397;53.016;-2.260;2023-04-30T12:32:56;21.90;;;9.90;;
44670;SDS011;48397;53.016;-2.260;2023-04-30T12:35:26;20.95;;;10.10;;
44670;SDS011;48397;53.016;-2.260;2023-04-30T12:38:02;24.30;;;10.95;;
44670;SDS011;48397;53.016;-2.260;2023-04-30T12:40:31;29.55;;;11.35;;
44670;SDS011;48397;53.016;-2.260;2023-04-30T12:45:47;24.95;;;10.85;;
44670;SDS011;48397;53.016;-2.260;2023-04-30T12:48:21;21.80;;;10.10;;
44670;SDS011;48397;53.016;-2.260;2023-04-30T12:51:00;17.77;;;8.23;;
44670;SDS011;48397;53.016;-2.260;2023-04-30T12:53:30;17.20;;;8.65;;
44670;SDS011;48397;53.016;-2.260;2023-04-30T12:58:42;19.95;;;9.48;;
44670;SDS011;48397;53.016;-2.260;2023-04-30T13:01:17;24.10;;;10.65;;
44670;SDS011;48397;53.016;-2.260;2023-04-30T13:03:50;25.80;;;11.48;;
44670;SDS011;48397;53.016;-2.260;2023-04-30T13:06:20;20.63;;;9.00;;
44670;SDS011;48397;53.016;-2.260;2023-04-30T13:08:49;22.90;;;10.50;;
44670;SDS011;48397;53.016;-2.260;2023-04-30T13:11:25;21.23;;;9.65;;
44670;SDS011;48397;53.016;-2.260;2023-04-30T13:13:54;25.60;;;11.98;;
44670;SDS011;48397;53.016;-2.260;2023-04-30T13:16:22;21.85;;;10.40;;
44670;SDS011;48397;53.016;-2.260;2023-04-30T13:18:53;24.45;;;10.80;;
44670;SDS011;48397;53.016;-2.260;2023-04-30T13:21:21;23.50;;;9.63;;
44670;SDS011;48397;53.016;-2.260;2023-04-30T13:23:51;23.45;;;9.98;;
44670;SDS011;48397;53.016;-2.260;2023-04-30T13:26:21;23.67;;;11.02;;
44670;SDS011;48397;53.016;-2.260;2023-04-30T13:28:49;28.60;;;12.80;;
44670;SDS011;48397;53.016;-2.260;2023-04-30T13:31:17;28.30;;;11.30;;
44670;SDS011;48397;53.016;-2.260;2023-04-30T13:33:45;28.23;;;11.82;;
44670;SDS011;48397;53.016;-2.260;2023-04-30T13:36:13;24.52;;;11.10;;
44670;SDS011;48397;53.016;-2.260;2023-04-30T13:38:42;24.60;;;11.38;;
44670;SDS011;48397;53.016;-2.260;2023-04-30T13:41:10;24.55;;;11.10;;
44670;SDS011;48397;53.016;-2.260;2023-04-30T13:43:39;25.05;;;11.68;;
44670;SDS011;48397;53.016;-2.260;2023-04-30T13:46:08;28.48;;;10.88;;
44670;SDS011;48397;53.016;-2.260;2023-04-30T13:48:36;26.58;;;12.25;;
44670;SDS011;48397;53.016;-2.260;2023-04-30T13:53:32;26.63;;;11.50;;
44670;SDS011;48397;53.016;-2.260;2023-04-30T13:56:01;26.13;;;11.55;;
44670;SDS011;48397;53.016;-2.260;2023-04-30T14:00:57;26.08;;;12.32;;
44670;SDS011;48397;53.016;-2.260;2023-04-30T14:03:25;26.90;;;11.65;;
44670;SDS011;48397;53.016;-2.260;2023-04-30T14:05:53;26.38;;;11.30;;
44670;SDS011;48397;53.016;-2.260;2023-04-30T14:08:22;30.73;;;13.30;;
44670;SDS011;48397;53.016;-2.260;2023-04-30T14:10:50;25.88;;;13.07;;
44670;SDS011;48397;53.016;-2.260;2023-04-30T14:13:17;29.55;;;13.52;;
44670;SDS011;48397;53.016;-2.260;2023-04-30T14:15:45;27.83;;;13.25;;
44670;SDS011;48397;53.016;-2.260;2023-04-30T14:18:13;30.10;;;14.88;;
44670;SDS011;48397;53.016;-2.260;2023-04-30T14:20:41;30.80;;;13.10;;
44670;SDS011;48397;53.016;-2.260;2023-04-30T14:23:09;29.83;;;13.88;;
44670;SDS011;48397;53.016;-2.260;2023-04-30T14:25:37;29.27;;;14.63;;
44670;SDS011;48397;53.016;-2.260;2023-04-30T14:28:05;33.63;;;14.25;;
44670;SDS011;48397;53.016;-2.260;2023-04-30T14:30:32;30.45;;;13.15;;
44670;SDS011;48397;53.016;-2.260;2023-04-30T14:33:00;30.90;;;13.98;;
44670;SDS011;48397;53.016;-2.260;2023-04-30T14:35:28;30.02;;;12.65;;
44670;SDS011;48397;53.016;-2.260;2023-04-30T14:37:55;28.27;;;13.13;;
44670;SDS011;48397;53.016;-2.260;2023-04-30T14:42:52;26.98;;;12.43;;
44670;SDS011;48397;53.016;-2.260;2023-04-30T14:45:20;26.88;;;12.18;;
44670;SDS011;48397;53.016;-2.260;2023-04-30T14:52:43;24.20;;;12.07;;
44670;SDS011;48397;53.016;-2.260;2023-04-30T14:55:10;26.60;;;12.18;;
44670;SDS011;48397;53.016;-2.260;2023-04-30T14:57:38;28.88;;;13.70;;
44670;SDS011;48397;53.016;-2.260;2023-04-30T15:00:07;25.10;;;11.40;;
44670;SDS011;48397;53.016;-2.260;2023-04-30T15:02:36;28.50;;;11.50;;
44670;SDS011;48397;53.016;-2.260;2023-04-30T15:05:05;25.52;;;12.05;;
44670;SDS011;48397;53.016;-2.260;2023-04-30T15:07:33;25.77;;;11.90;;
44670;SDS011;48397;53.016;-2.260;2023-04-30T15:10:03;30.17;;;12.45;;
44670;SDS011;48397;53.016;-2.260;2023-04-30T15:12:32;28.73;;;13.05;;
44670;SDS011;48397;53.016;-2.260;2023-04-30T15:15:01;30.65;;;13.05;;
44670;SDS011;48397;53.016;-2.260;2023-04-30T15:17:31;25.58;;;11.60;;
44670;SDS011;48397;53.016;-2.260;2023-04-30T15:20:03;22.10;;;10.43;;
44670;SDS011;48397;53.016;-2.260;2023-04-30T15:22:32;29.02;;;12.05;;
44670;SDS011;48397;53.016;-2.260;2023-04-30T15:25:00;23.08;;;11.32;;
44670;SDS011;48397;53.016;-2.260;2023-04-30T15:27:28;24.83;;;10.65;;
44670;SDS011;48397;53.016;-2.260;2023-04-30T15:29:59;21.73;;;9.65;;
44670;SDS011;48397;53.016;-2.260;2023-04-30T15:32:26;20.15;;;9.60;;
44670;SDS011;48397;53.016;-2.260;2023-04-30T15:34:54;22.25;;;9.38;;
44670;SDS011;48397;53.016;-2.260;2023-04-30T15:39:49;23.17;;;9.55;;
44670;SDS011;48397;53.016;-2.260;2023-04-30T15:44:45;20.90;;;9.63;;
44670;SDS011;48397;53.016;-2.260;2023-04-30T15:47:13;16.50;;;8.07;;
44670;SDS011;48397;53.016;-2.260;2023-04-30T15:49:41;18.02;;;9.25;;
44670;SDS011;48397;53.016;-2.260;2023-04-30T15:52:10;16.15;;;8.90;;
44670;SDS011;48397;53.016;-2.260;2023-04-30T15:54:39;17.52;;;8.63;;
44670;SDS011;48397;53.016;-2.260;2023-04-30T15:57:06;18.15;;;8.45;;
44670;SDS011;48397;53.016;-2.260;2023-04-30T15:59:34;16.08;;;8.90;;
44670;SDS011;48397;53.016;-2.260;2023-04-30T16:02:02;17.50;;;8.75;;